sensor_id;sensor_type;location;lat;lon;timestamp;P1;P2;P0
76784;PMS7003;66893;44.316;0.092;2023-02-08T00:01:58;12.25;8.25;7.00
76784;PMS7003;66893;44.316;0.092;2023-02-08T00:04:24;12.25;9.50;6.50
76784;PMS7003;66893;44.316;0.092;2023-02-08T00:06:49;10.50;10.50;7.00
76784;PMS7003;66893;44.316;0.092;2023-02-08T00:09:15;9.00;6.25;5.75
76784;PMS7003;66893;44.316;0.092;2023-02-08T00:11:40;11.50;9.00;7.00
76784;PMS7003;66893;44.316;0.092;2023-02-08T00:14:06;11.00;9.00;7.00
76784;PMS7003;66893;44.316;0.092;2023-02-08T00:16:32;10.25;10.00;6.75
76784;PMS7003;66893;44.316;0.092;2023-02-08T00:18:58;12.75;9.00;7.75
76784;PMS7003;66893;44.316;0.092;2023-02-08T00:21:24;10.75;9.25;7.50
76784;PMS7003;66893;44.316;0.092;2023-02-08T00:23:49;10.00;8.00;6.00
76784;PMS7003;66893;44.316;0.092;2023-02-08T00:26:15;9.00;7.50;6.00
76784;PMS7003;66893;44.316;0.092;2023-02-08T00:28:41;9.50;9.00;7.00
76784;PMS7003;66893;44.316;0.092;2023-02-08T00:31:06;13.25;9.25;7.25
76784;PMS7003;66893;44.316;0.092;2023-02-08T00:33:32;9.25;8.25;6.50
76784;PMS7003;66893;44.316;0.092;2023-02-08T00:35:58;13.00;10.25;7.00
76784;PMS7003;66893;44.316;0.092;2023-02-08T00:38:25;9.00;7.25;5.50
76784;PMS7003;66893;44.316;0.092;2023-02-08T00:40:51;9.25;7.25;6.00
76784;PMS7003;66893;44.316;0.092;2023-02-08T00:43:16;7.75;7.75;6.75
76784;PMS7003;66893;44.316;0.092;2023-02-08T00:45:42;9.00;7.25;5.50
76784;PMS7003;66893;44.316;0.092;2023-02-08T00:48:07;8.00;6.50;5.00
76784;PMS7003;66893;44.316;0.092;2023-02-08T00:50:33;8.00;7.25;6.00
76784;PMS7003;66893;44.316;0.092;2023-02-08T00:52:58;8.00;7.75;5.75
76784;PMS7003;66893;44.316;0.092;2023-02-08T00:55:24;11.00;9.00;7.75
76784;PMS7003;66893;44.316;0.092;2023-02-08T00:57:49;12.50;10.50;7.75
76784;PMS7003;66893;44.316;0.092;2023-02-08T01:00:15;15.50;9.00;7.00
76784;PMS7003;66893;44.316;0.092;2023-02-08T01:02:40;13.25;11.50;7.25
76784;PMS7003;66893;44.316;0.092;2023-02-08T01:05:06;16.75;9.00;7.00
76784;PMS7003;66893;44.316;0.092;2023-02-08T01:07:31;14.75;11.50;7.00
76784;PMS7003;66893;44.316;0.092;2023-02-08T01:09:57;11.50;11.50;8.00
76784;PMS7003;66893;44.316;0.092;2023-02-08T01:12:24;10.25;10.25;8.25
76784;PMS7003;66893;44.316;0.092;2023-02-08T01:14:50;12.00;11.50;7.50
76784;PMS7003;66893;44.316;0.092;2023-02-08T01:17:15;12.75;9.25;6.50
76784;PMS7003;66893;44.316;0.092;2023-02-08T01:19:40;16.50;13.00;8.00
76784;PMS7003;66893;44.316;0.092;2023-02-08T01:22:06;12.25;9.25;7.75
76784;PMS7003;66893;44.316;0.092;2023-02-08T01:24:31;12.00;8.75;6.00
76784;PMS7003;66893;44.316;0.092;2023-02-08T01:26:57;10.50;10.25;7.50
76784;PMS7003;66893;44.316;0.092;2023-02-08T01:29:23;7.75;7.75;5.75
76784;PMS7003;66893;44.316;0.092;2023-02-08T01:31:48;7.50;6.00;3.50
76784;PMS7003;66893;44.316;0.092;2023-02-08T01:34:14;8.75;7.75;7.00
76784;PMS7003;66893;44.316;0.092;2023-02-08T01:36:39;7.00;6.25;5.00
76784;PMS7003;66893;44.316;0.092;2023-02-08T01:39:05;13.50;9.75;7.50
76784;PMS7003;66893;44.316;0.092;2023-02-08T01:41:36;8.75;8.75;6.00
76784;PMS7003;66893;44.316;0.092;2023-02-08T01:46:37;15.00;11.50;9.25
76784;PMS7003;66893;44.316;0.092;2023-02-08T01:49:10;11.75;10.50;6.50
76784;PMS7003;66893;44.316;0.092;2023-02-08T01:51:43;17.50;15.00;9.50
76784;PMS7003;66893;44.316;0.092;2023-02-08T01:54:12;12.75;10.00;7.25
76784;PMS7003;66893;44.316;0.092;2023-02-08T01:56:41;12.25;9.75;8.00
76784;PMS7003;66893;44.316;0.092;2023-02-08T01:59:11;16.50;14.00;9.25
76784;PMS7003;66893;44.316;0.092;2023-02-08T02:01:41;14.00;13.00;10.50
76784;PMS7003;66893;44.316;0.092;2023-02-08T02:04:10;15.25;13.00;10.25
76784;PMS7003;66893;44.316;0.092;2023-02-08T02:06:37;15.00;14.00;10.00
76784;PMS7003;66893;44.316;0.092;2023-02-08T02:09:11;14.50;13.75;9.25
76784;PMS7003;66893;44.316;0.092;2023-02-08T02:11:38;14.00;13.25;10.50
76784;PMS7003;66893;44.316;0.092;2023-02-08T02:14:04;18.00;16.00;12.25
76784;PMS7003;66893;44.316;0.092;2023-02-08T02:16:30;22.00;18.25;12.25
76784;PMS7003;66893;44.316;0.092;2023-02-08T02:18:56;19.50;18.75;13.50
76784;PMS7003;66893;44.316;0.092;2023-02-08T02:32:44;16.00;13.25;10.00
76784;PMS7003;66893;44.316;0.092;2023-02-08T02:35:33;17.50;14.75;11.00
76784;PMS7003;66893;44.316;0.092;2023-02-08T02:38:29;15.75;13.25;11.00
76784;PMS7003;66893;44.316;0.092;2023-02-08T02:44:41;15.25;15.00;12.00
76784;PMS7003;66893;44.316;0.092;2023-02-08T02:47:26;14.00;14.00;12.00
76784;PMS7003;66893;44.316;0.092;2023-02-08T02:50:11;19.25;17.50;13.00
76784;PMS7003;66893;44.316;0.092;2023-02-08T02:52:42;16.00;16.00;12.25
76784;PMS7003;66893;44.316;0.092;2023-02-08T02:55:14;13.50;12.25;10.50
76784;PMS7003;66893;44.316;0.092;2023-02-08T02:57:42;18.00;15.50;13.00
76784;PMS7003;66893;44.316;0.092;2023-02-08T03:00:11;22.75;15.25;12.25
76784;PMS7003;66893;44.316;0.092;2023-02-08T03:02:44;17.00;15.25;12.00
76784;PMS7003;66893;44.316;0.092;2023-02-08T03:05:10;21.75;18.25;11.00
76784;PMS7003;66893;44.316;0.092;2023-02-08T03:16:37;17.25;17.00;11.50
76784;PMS7003;66893;44.316;0.092;2023-02-08T03:19:19;13.50;13.50;11.25
76784;PMS7003;66893;44.316;0.092;2023-02-08T03:21:59;18.00;16.50;13.00
76784;PMS7003;66893;44.316;0.092;2023-02-08T03:24:32;23.25;16.25;11.50
76784;PMS7003;66893;44.316;0.092;2023-02-08T03:35:33;23.00;17.50;13.50
76784;PMS7003;66893;44.316;0.092;2023-02-08T03:38:35;17.50;14.50;11.00
76784;PMS7003;66893;44.316;0.092;2023-02-08T03:41:06;22.75;20.00;14.00
76784;PMS7003;66893;44.316;0.092;2023-02-08T03:43:39;24.25;20.75;14.00
76784;PMS7003;66893;44.316;0.092;2023-02-08T03:48:50;21.00;20.75;13.00
76784;PMS7003;66893;44.316;0.092;2023-02-08T03:51:21;27.00;21.75;14.50
76784;PMS7003;66893;44.316;0.092;2023-02-08T03:53:49;26.50;20.25;13.00
76784;PMS7003;66893;44.316;0.092;2023-02-08T03:56:21;32.75;30.75;20.75
76784;PMS7003;66893;44.316;0.092;2023-02-08T03:59:10;29.50;27.25;18.25
76784;PMS7003;66893;44.316;0.092;2023-02-08T04:01:42;32.25;26.75;18.50
76784;PMS7003;66893;44.316;0.092;2023-02-08T04:04:11;25.75;22.25;14.25
76784;PMS7003;66893;44.316;0.092;2023-02-08T04:06:39;27.75;25.00;17.25
76784;PMS7003;66893;44.316;0.092;2023-02-08T04:09:04;23.75;22.00;17.25
76784;PMS7003;66893;44.316;0.092;2023-02-08T04:11:30;26.50;23.00;15.25
76784;PMS7003;66893;44.316;0.092;2023-02-08T04:13:55;26.50;24.00;18.50
76784;PMS7003;66893;44.316;0.092;2023-02-08T04:16:21;20.75;20.00;15.00
76784;PMS7003;66893;44.316;0.092;2023-02-08T04:18:46;24.50;24.00;14.25
76784;PMS7003;66893;44.316;0.092;2023-02-08T04:21:11;21.75;19.75;13.75
76784;PMS7003;66893;44.316;0.092;2023-02-08T04:23:37;21.25;20.25;13.25
76784;PMS7003;66893;44.316;0.092;2023-02-08T04:26:02;22.75;21.00;14.50
76784;PMS7003;66893;44.316;0.092;2023-02-08T04:28:28;20.00;20.00;15.00
76784;PMS7003;66893;44.316;0.092;2023-02-08T04:30:54;22.00;18.00;13.25
76784;PMS7003;66893;44.316;0.092;2023-02-08T04:33:23;18.75;18.00;14.25
76784;PMS7003;66893;44.316;0.092;2023-02-08T04:35:49;25.75;21.00;12.50
76784;PMS7003;66893;44.316;0.092;2023-02-08T04:38:14;19.25;18.25;12.50
76784;PMS7003;66893;44.316;0.092;2023-02-08T04:40:39;22.25;19.50;13.75
76784;PMS7003;66893;44.316;0.092;2023-02-08T04:43:05;16.50;13.00;12.00
76784;PMS7003;66893;44.316;0.092;2023-02-08T04:45:30;20.00;18.50;13.00
76784;PMS7003;66893;44.316;0.092;2023-02-08T04:47:57;20.75;17.50;13.75
76784;PMS7003;66893;44.316;0.092;2023-02-08T04:50:24;19.25;16.50;13.25
76784;PMS7003;66893;44.316;0.092;2023-02-08T04:52:50;21.50;17.50;13.75
76784;PMS7003;66893;44.316;0.092;2023-02-08T04:55:16;21.75;20.50;13.00
76784;PMS7003;66893;44.316;0.092;2023-02-08T04:57:41;16.00;15.50;12.50
76784;PMS7003;66893;44.316;0.092;2023-02-08T05:00:07;21.75;19.75;13.00
76784;PMS7003;66893;44.316;0.092;2023-02-08T05:02:32;24.25;17.00;12.25
76784;PMS7003;66893;44.316;0.092;2023-02-08T05:04:58;21.75;18.00;13.00
76784;PMS7003;66893;44.316;0.092;2023-02-08T05:07:23;22.75;18.75;13.75
76784;PMS7003;66893;44.316;0.092;2023-02-08T05:09:49;20.75;18.25;13.00
76784;PMS7003;66893;44.316;0.092;2023-02-08T05:12:14;20.50;18.50;12.50
76784;PMS7003;66893;44.316;0.092;2023-02-08T05:14:40;23.00;19.50;13.00
76784;PMS7003;66893;44.316;0.092;2023-02-08T05:17:05;20.00;19.00;14.00
76784;PMS7003;66893;44.316;0.092;2023-02-08T05:19:31;18.25;18.00;13.50
76784;PMS7003;66893;44.316;0.092;2023-02-08T05:21:56;18.75;18.50;13.00
76784;PMS7003;66893;44.316;0.092;2023-02-08T05:24:21;14.00;13.00;11.25
76784;PMS7003;66893;44.316;0.092;2023-02-08T05:26:47;24.25;19.50;14.00
76784;PMS7003;66893;44.316;0.092;2023-02-08T05:29:13;20.50;18.75;14.00
76784;PMS7003;66893;44.316;0.092;2023-02-08T05:31:39;20.25;18.00;13.00
76784;PMS7003;66893;44.316;0.092;2023-02-08T05:34:04;23.50;19.75;14.00
76784;PMS7003;66893;44.316;0.092;2023-02-08T05:36:30;22.50;20.00;14.00
76784;PMS7003;66893;44.316;0.092;2023-02-08T05:38:55;25.00;20.75;13.75
76784;PMS7003;66893;44.316;0.092;2023-02-08T05:41:21;23.25;19.00;13.00
76784;PMS7003;66893;44.316;0.092;2023-02-08T05:43:46;21.00;20.00;14.00
76784;PMS7003;66893;44.316;0.092;2023-02-08T05:46:12;19.75;18.75;11.75
76784;PMS7003;66893;44.316;0.092;2023-02-08T05:48:37;25.00;23.00;15.75
76784;PMS7003;66893;44.316;0.092;2023-02-08T05:51:03;25.00;20.00;15.00
76784;PMS7003;66893;44.316;0.092;2023-02-08T05:53:29;21.00;20.25;15.00
76784;PMS7003;66893;44.316;0.092;2023-02-08T05:55:55;24.00;23.50;15.50
76784;PMS7003;66893;44.316;0.092;2023-02-08T05:58:22;27.75;24.00;16.50
76784;PMS7003;66893;44.316;0.092;2023-02-08T06:00:48;19.50;17.75;13.00
76784;PMS7003;66893;44.316;0.092;2023-02-08T06:03:13;26.00;23.75;16.25
76784;PMS7003;66893;44.316;0.092;2023-02-08T06:05:39;28.00;20.25;14.00
76784;PMS7003;66893;44.316;0.092;2023-02-08T06:08:05;21.75;19.75;15.00
76784;PMS7003;66893;44.316;0.092;2023-02-08T06:10:30;19.50;17.75;13.00
76784;PMS7003;66893;44.316;0.092;2023-02-08T06:12:56;23.50;22.75;16.50
76784;PMS7003;66893;44.316;0.092;2023-02-08T06:15:21;26.25;23.00;17.00
76784;PMS7003;66893;44.316;0.092;2023-02-08T06:17:47;24.75;22.75;14.75
76784;PMS7003;66893;44.316;0.092;2023-02-08T06:20:12;17.50;17.00;14.00
76784;PMS7003;66893;44.316;0.092;2023-02-08T06:22:38;26.75;24.75;18.00
76784;PMS7003;66893;44.316;0.092;2023-02-08T06:25:03;26.00;24.00;15.50
76784;PMS7003;66893;44.316;0.092;2023-02-08T06:27:29;27.00;21.50;16.75
76784;PMS7003;66893;44.316;0.092;2023-02-08T06:29:55;26.25;21.50;15.00
76784;PMS7003;66893;44.316;0.092;2023-02-08T06:32:20;29.75;23.00;16.50
76784;PMS7003;66893;44.316;0.092;2023-02-08T06:34:46;28.00;22.00;15.50
76784;PMS7003;66893;44.316;0.092;2023-02-08T06:37:14;28.25;23.25;14.75
76784;PMS7003;66893;44.316;0.092;2023-02-08T06:39:40;27.00;23.25;14.75
76784;PMS7003;66893;44.316;0.092;2023-02-08T06:42:06;19.25;17.50;14.25
76784;PMS7003;66893;44.316;0.092;2023-02-08T06:44:31;28.25;23.00;16.75
76784;PMS7003;66893;44.316;0.092;2023-02-08T06:46:56;27.25;24.75;19.00
76784;PMS7003;66893;44.316;0.092;2023-02-08T06:49:22;24.50;22.75;14.00
76784;PMS7003;66893;44.316;0.092;2023-02-08T06:51:47;21.25;19.75;15.50
76784;PMS7003;66893;44.316;0.092;2023-02-08T06:54:13;25.25;20.75;12.25
76784;PMS7003;66893;44.316;0.092;2023-02-08T06:56:39;21.00;17.50;15.25
76784;PMS7003;66893;44.316;0.092;2023-02-08T06:59:05;19.50;18.25;15.00
76784;PMS7003;66893;44.316;0.092;2023-02-08T07:01:31;20.00;17.50;13.50
76784;PMS7003;66893;44.316;0.092;2023-02-08T07:03:56;23.75;20.75;15.25
76784;PMS7003;66893;44.316;0.092;2023-02-08T07:06:21;20.00;17.00;14.25
76784;PMS7003;66893;44.316;0.092;2023-02-08T07:08:47;19.25;18.00;13.25
76784;PMS7003;66893;44.316;0.092;2023-02-08T07:11:14;22.50;19.25;14.25
76784;PMS7003;66893;44.316;0.092;2023-02-08T07:13:47;20.00;19.50;12.75
76784;PMS7003;66893;44.316;0.092;2023-02-08T07:16:13;23.50;19.25;12.50
76784;PMS7003;66893;44.316;0.092;2023-02-08T07:18:39;21.50;20.75;15.25
76784;PMS7003;66893;44.316;0.092;2023-02-08T07:21:05;23.25;21.25;16.00
76784;PMS7003;66893;44.316;0.092;2023-02-08T07:23:30;24.50;21.50;14.25
76784;PMS7003;66893;44.316;0.092;2023-02-08T07:26:06;23.75;22.25;14.75
76784;PMS7003;66893;44.316;0.092;2023-02-08T07:28:34;26.75;22.00;15.25
76784;PMS7003;66893;44.316;0.092;2023-02-08T07:31:04;25.25;24.75;15.75
76784;PMS7003;66893;44.316;0.092;2023-02-08T07:33:34;22.00;20.00;14.25
76784;PMS7003;66893;44.316;0.092;2023-02-08T07:36:00;22.50;21.50;12.75
76784;PMS7003;66893;44.316;0.092;2023-02-08T07:38:27;21.75;18.50;13.00
76784;PMS7003;66893;44.316;0.092;2023-02-08T07:40:58;19.00;16.00;12.00
76784;PMS7003;66893;44.316;0.092;2023-02-08T07:43:32;27.50;24.75;15.75
76784;PMS7003;66893;44.316;0.092;2023-02-08T07:48:35;25.25;22.00;16.00
76784;PMS7003;66893;44.316;0.092;2023-02-08T07:51:01;26.50;25.50;18.00
76784;PMS7003;66893;44.316;0.092;2023-02-08T07:53:27;30.25;26.75;19.75
76784;PMS7003;66893;44.316;0.092;2023-02-08T07:55:53;34.75;29.75;20.50
76784;PMS7003;66893;44.316;0.092;2023-02-08T07:58:18;33.75;28.75;21.00
76784;PMS7003;66893;44.316;0.092;2023-02-08T08:00:44;30.75;29.75;21.75
76784;PMS7003;66893;44.316;0.092;2023-02-08T08:03:09;28.50;26.75;20.50
76784;PMS7003;66893;44.316;0.092;2023-02-08T08:05:35;34.25;30.75;21.00
76784;PMS7003;66893;44.316;0.092;2023-02-08T08:08:00;30.75;26.25;18.00
76784;PMS7003;66893;44.316;0.092;2023-02-08T08:10:26;35.25;31.00;21.25
76784;PMS7003;66893;44.316;0.092;2023-02-08T08:12:51;26.25;24.00;18.00
76784;PMS7003;66893;44.316;0.092;2023-02-08T08:15:17;30.50;28.75;20.00
76784;PMS7003;66893;44.316;0.092;2023-02-08T08:17:42;25.50;22.25;17.00
76784;PMS7003;66893;44.316;0.092;2023-02-08T08:20:08;27.75;22.00;15.25
76784;PMS7003;66893;44.316;0.092;2023-02-08T08:22:35;25.75;21.25;14.75
76784;PMS7003;66893;44.316;0.092;2023-02-08T08:25:01;24.50;22.75;16.50
76784;PMS7003;66893;44.316;0.092;2023-02-08T08:27:26;20.25;17.50;12.50
76784;PMS7003;66893;44.316;0.092;2023-02-08T08:29:52;24.75;22.25;13.75
76784;PMS7003;66893;44.316;0.092;2023-02-08T08:32:17;21.00;19.75;13.50
76784;PMS7003;66893;44.316;0.092;2023-02-08T08:34:43;21.50;19.25;14.75
76784;PMS7003;66893;44.316;0.092;2023-02-08T08:37:08;22.50;18.50;13.75
76784;PMS7003;66893;44.316;0.092;2023-02-08T08:39:34;22.00;18.75;13.25
76784;PMS7003;66893;44.316;0.092;2023-02-08T08:42:01;20.00;18.25;12.25
76784;PMS7003;66893;44.316;0.092;2023-02-08T08:44:28;19.00;17.00;12.25
76784;PMS7003;66893;44.316;0.092;2023-02-08T08:46:55;22.25;17.25;13.25
76784;PMS7003;66893;44.316;0.092;2023-02-08T08:49:22;25.75;21.00;15.00
76784;PMS7003;66893;44.316;0.092;2023-02-08T08:51:48;23.25;19.00;14.50
76784;PMS7003;66893;44.316;0.092;2023-02-08T08:54:15;19.00;17.00;13.00
76784;PMS7003;66893;44.316;0.092;2023-02-08T08:56:40;24.50;22.25;17.00
76784;PMS7003;66893;44.316;0.092;2023-02-08T08:59:06;23.50;21.00;17.00
76784;PMS7003;66893;44.316;0.092;2023-02-08T09:01:31;25.25;22.25;14.25
76784;PMS7003;66893;44.316;0.092;2023-02-08T09:03:57;22.75;20.50;14.75
76784;PMS7003;66893;44.316;0.092;2023-02-08T09:06:23;26.50;21.50;15.50
76784;PMS7003;66893;44.316;0.092;2023-02-08T09:08:48;22.50;19.00;14.00
76784;PMS7003;66893;44.316;0.092;2023-02-08T09:11:14;18.75;17.75;13.25
76784;PMS7003;66893;44.316;0.092;2023-02-08T09:13:41;27.50;25.75;19.00
76784;PMS7003;66893;44.316;0.092;2023-02-08T09:18:33;30.00;28.50;19.50
76784;PMS7003;66893;44.316;0.092;2023-02-08T09:21:03;36.00;31.50;20.50
76784;PMS7003;66893;44.316;0.092;2023-02-08T09:23:33;31.00;29.25;21.50
76784;PMS7003;66893;44.316;0.092;2023-02-08T09:26:00;34.00;31.50;20.75
76784;PMS7003;66893;44.316;0.092;2023-02-08T09:28:27;32.25;27.75;22.00
76784;PMS7003;66893;44.316;0.092;2023-02-08T09:30:52;32.50;29.25;20.00
76784;PMS7003;66893;44.316;0.092;2023-02-08T09:33:18;31.50;28.00;21.25
76784;PMS7003;66893;44.316;0.092;2023-02-08T09:35:43;32.50;30.00;21.00
76784;PMS7003;66893;44.316;0.092;2023-02-08T09:38:08;31.75;29.00;21.00
76784;PMS7003;66893;44.316;0.092;2023-02-08T09:40:41;28.75;28.00;19.50
76784;PMS7003;66893;44.316;0.092;2023-02-08T09:46:11;35.25;30.50;20.50
76784;PMS7003;66893;44.316;0.092;2023-02-08T09:48:41;44.25;36.75;24.50
76784;PMS7003;66893;44.316;0.092;2023-02-08T09:53:41;46.50;38.00;26.50
76784;PMS7003;66893;44.316;0.092;2023-02-08T09:56:14;37.50;33.50;22.25
76784;PMS7003;66893;44.316;0.092;2023-02-08T09:58:45;46.25;38.50;25.25
76784;PMS7003;66893;44.316;0.092;2023-02-08T10:03:51;93.50;58.25;32.50
76784;PMS7003;66893;44.316;0.092;2023-02-08T10:06:19;103.75;97.00;66.25
76784;PMS7003;66893;44.316;0.092;2023-02-08T10:08:47;90.75;69.75;39.00
76784;PMS7003;66893;44.316;0.092;2023-02-08T10:32:59;42.50;36.75;26.00
76784;PMS7003;66893;44.316;0.092;2023-02-08T10:35:30;43.00;35.75;23.50
76784;PMS7003;66893;44.316;0.092;2023-02-08T10:38:06;43.00;36.00;23.00
76784;PMS7003;66893;44.316;0.092;2023-02-08T10:40:48;35.00;31.75;22.75
76784;PMS7003;66893;44.316;0.092;2023-02-08T10:43:28;42.00;35.75;24.75
76784;PMS7003;66893;44.316;0.092;2023-02-08T10:45:59;35.50;28.75;20.25
76784;PMS7003;66893;44.316;0.092;2023-02-08T10:48:34;36.75;28.25;22.00
76784;PMS7003;66893;44.316;0.092;2023-02-08T10:51:01;32.25;25.50;18.50
76784;PMS7003;66893;44.316;0.092;2023-02-08T10:53:27;34.25;25.75;19.00
76784;PMS7003;66893;44.316;0.092;2023-02-08T10:55:52;26.25;25.00;20.00
76784;PMS7003;66893;44.316;0.092;2023-02-08T10:58:19;29.50;20.75;14.50
76784;PMS7003;66893;44.316;0.092;2023-02-08T11:00:48;25.00;22.25;14.25
76784;PMS7003;66893;44.316;0.092;2023-02-08T11:03:25;25.75;20.75;11.50
76784;PMS7003;66893;44.316;0.092;2023-02-08T11:05:53;19.00;17.50;12.00
76784;PMS7003;66893;44.316;0.092;2023-02-08T11:08:22;21.00;19.25;12.50
76784;PMS7003;66893;44.316;0.092;2023-02-08T11:11:06;16.25;14.50;11.50
76784;PMS7003;66893;44.316;0.092;2023-02-08T11:13:35;15.75;14.00;9.75
76784;PMS7003;66893;44.316;0.092;2023-02-08T11:16:04;14.25;13.50;10.25
76784;PMS7003;66893;44.316;0.092;2023-02-08T11:18:33;12.25;12.25;10.00
76784;PMS7003;66893;44.316;0.092;2023-02-08T11:23:57;13.50;9.75;7.00
76784;PMS7003;66893;44.316;0.092;2023-02-08T11:29:04;12.00;12.00;8.75
76784;PMS7003;66893;44.316;0.092;2023-02-08T11:31:39;12.00;11.25;7.75
76784;PMS7003;66893;44.316;0.092;2023-02-08T11:34:24;16.75;12.75;9.50
76784;PMS7003;66893;44.316;0.092;2023-02-08T11:37:11;11.75;11.75;8.00
76784;PMS7003;66893;44.316;0.092;2023-02-08T11:39:52;19.25;15.25;9.00
76784;PMS7003;66893;44.316;0.092;2023-02-08T11:42:24;15.50;9.00;7.00
76784;PMS7003;66893;44.316;0.092;2023-02-08T11:44:53;13.00;10.75;8.25
76784;PMS7003;66893;44.316;0.092;2023-02-08T11:47:24;13.25;13.25;8.75
76784;PMS7003;66893;44.316;0.092;2023-02-08T11:49:55;9.75;8.50;6.00
76784;PMS7003;66893;44.316;0.092;2023-02-08T11:52:24;9.50;7.25;6.00
76784;PMS7003;66893;44.316;0.092;2023-02-08T11:54:54;9.25;8.75;6.00
76784;PMS7003;66893;44.316;0.092;2023-02-08T11:57:35;13.50;10.00;8.00
76784;PMS7003;66893;44.316;0.092;2023-02-08T12:00:26;9.75;9.00;7.00
76784;PMS7003;66893;44.316;0.092;2023-02-08T12:02:58;15.50;13.00;8.00
76784;PMS7003;66893;44.316;0.092;2023-02-08T12:05:29;12.50;11.25;8.25
76784;PMS7003;66893;44.316;0.092;2023-02-08T12:11:28;14.25;9.75;7.00
76784;PMS7003;66893;44.316;0.092;2023-02-08T12:30:14;11.50;11.50;8.00
76784;PMS7003;66893;44.316;0.092;2023-02-08T12:41:12;10.00;9.25;7.00
76784;PMS7003;66893;44.316;0.092;2023-02-08T12:46:19;10.75;10.00;6.75
76784;PMS7003;66893;44.316;0.092;2023-02-08T12:49:04;13.25;10.00;7.50
76784;PMS7003;66893;44.316;0.092;2023-02-08T12:51:56;12.00;10.75;7.00
76784;PMS7003;66893;44.316;0.092;2023-02-08T12:57:29;12.75;12.00;10.00
76784;PMS7003;66893;44.316;0.092;2023-02-08T13:00:01;10.50;10.50;8.00
76784;PMS7003;66893;44.316;0.092;2023-02-08T13:02:33;10.75;10.00;8.00
76784;PMS7003;66893;44.316;0.092;2023-02-08T13:05:10;11.00;8.50;7.00
76784;PMS7003;66893;44.316;0.092;2023-02-08T13:07:42;17.75;17.75;14.50
76784;PMS7003;66893;44.316;0.092;2023-02-08T13:12:59;10.25;10.25;8.25
76784;PMS7003;66893;44.316;0.092;2023-02-08T13:15:38;15.00;12.75;9.00
76784;PMS7003;66893;44.316;0.092;2023-02-08T13:18:14;10.25;10.00;7.00
76784;PMS7003;66893;44.316;0.092;2023-02-08T13:20:45;8.75;7.00;6.00
76784;PMS7003;66893;44.316;0.092;2023-02-08T13:23:25;13.75;9.00;6.50
76784;PMS7003;66893;44.316;0.092;2023-02-08T13:26:29;5.75;5.75;5.00
76784;PMS7003;66893;44.316;0.092;2023-02-08T13:28:56;9.75;9.00;6.00
76784;PMS7003;66893;44.316;0.092;2023-02-08T13:31:23;8.50;6.75;5.00
76784;PMS7003;66893;44.316;0.092;2023-02-08T13:36:36;11.00;9.00;6.25
76784;PMS7003;66893;44.316;0.092;2023-02-08T13:39:06;9.50;8.00;6.50
76784;PMS7003;66893;44.316;0.092;2023-02-08T13:41:50;9.50;8.50;6.75
76784;PMS7003;66893;44.316;0.092;2023-02-08T13:44:18;7.50;7.50;6.50
76784;PMS7003;66893;44.316;0.092;2023-02-08T13:46:49;7.25;6.75;5.50
76784;PMS7003;66893;44.316;0.092;2023-02-08T13:52:03;9.75;8.25;5.75
76784;PMS7003;66893;44.316;0.092;2023-02-08T13:54:28;8.00;5.75;4.00
76784;PMS7003;66893;44.316;0.092;2023-02-08T13:56:54;8.00;8.00;6.00
76784;PMS7003;66893;44.316;0.092;2023-02-08T13:59:36;6.75;6.75;5.00
76784;PMS7003;66893;44.316;0.092;2023-02-08T14:04:39;8.75;8.00;5.50
76784;PMS7003;66893;44.316;0.092;2023-02-08T14:15:33;9.25;6.00;4.75
76784;PMS7003;66893;44.316;0.092;2023-02-08T14:18:01;5.25;5.25;4.00
76784;PMS7003;66893;44.316;0.092;2023-02-08T14:20:33;7.25;6.00;4.25
76784;PMS7003;66893;44.316;0.092;2023-02-08T14:23:04;7.25;5.50;5.00
76784;PMS7003;66893;44.316;0.092;2023-02-08T14:25:44;6.00;6.00;4.75
76784;PMS7003;66893;44.316;0.092;2023-02-08T14:30:59;5.00;5.00;4.00
76784;PMS7003;66893;44.316;0.092;2023-02-08T14:33:29;6.00;5.25;4.00
76784;PMS7003;66893;44.316;0.092;2023-02-08T14:36:00;6.50;5.00;4.25
76784;PMS7003;66893;44.316;0.092;2023-02-08T14:41:40;5.50;5.50;4.00
76784;PMS7003;66893;44.316;0.092;2023-02-08T14:47:01;3.00;3.00;2.00
76784;PMS7003;66893;44.316;0.092;2023-02-08T14:49:38;4.00;4.00;3.75
76784;PMS7003;66893;44.316;0.092;2023-02-08T14:52:11;5.00;4.00;3.00
76784;PMS7003;66893;44.316;0.092;2023-02-08T14:54:46;4.50;4.50;4.00
76784;PMS7003;66893;44.316;0.092;2023-02-08T14:57:24;7.25;4.50;3.75
76784;PMS7003;66893;44.316;0.092;2023-02-08T14:59:53;5.50;5.50;4.00
76784;PMS7003;66893;44.316;0.092;2023-02-08T15:02:26;6.50;5.50;4.00
76784;PMS7003;66893;44.316;0.092;2023-02-08T15:04:59;4.00;3.25;3.00
76784;PMS7003;66893;44.316;0.092;2023-02-08T15:09:53;4.00;4.00;3.50
76784;PMS7003;66893;44.316;0.092;2023-02-08T15:12:30;4.75;4.00;4.00
76784;PMS7003;66893;44.316;0.092;2023-02-08T15:14:58;2.00;2.00;2.00
76784;PMS7003;66893;44.316;0.092;2023-02-08T15:19:59;5.75;4.25;3.25
76784;PMS7003;66893;44.316;0.092;2023-02-08T15:22:36;6.25;4.50;3.75
76784;PMS7003;66893;44.316;0.092;2023-02-08T15:25:23;3.00;3.00;3.00
76784;PMS7003;66893;44.316;0.092;2023-02-08T15:27:52;3.25;3.25;2.75
76784;PMS7003;66893;44.316;0.092;2023-02-08T15:32:59;4.25;3.75;3.75
76784;PMS7003;66893;44.316;0.092;2023-02-08T15:35:26;5.00;4.00;3.50
76784;PMS7003;66893;44.316;0.092;2023-02-08T15:37:53;3.50;3.50;3.25
76784;PMS7003;66893;44.316;0.092;2023-02-08T15:40:21;1.25;0.75;0.75
76784;PMS7003;66893;44.316;0.092;2023-02-08T15:42:48;4.50;3.75;2.75
76784;PMS7003;66893;44.316;0.092;2023-02-08T15:45:24;3.75;3.25;2.75
76784;PMS7003;66893;44.316;0.092;2023-02-08T15:47:54;3.75;3.75;3.25
76784;PMS7003;66893;44.316;0.092;2023-02-08T15:50:21;4.00;4.00;3.50
76784;PMS7003;66893;44.316;0.092;2023-02-08T15:52:49;8.00;6.25;3.75
76784;PMS7003;66893;44.316;0.092;2023-02-08T15:55:21;4.25;4.25;4.25
76784;PMS7003;66893;44.316;0.092;2023-02-08T15:57:54;4.00;4.00;3.25
76784;PMS7003;66893;44.316;0.092;2023-02-08T16:00:25;4.50;4.25;3.00
76784;PMS7003;66893;44.316;0.092;2023-02-08T16:02:56;4.75;4.75;3.75
76784;PMS7003;66893;44.316;0.092;2023-02-08T16:05:27;6.50;5.50;4.00
76784;PMS7003;66893;44.316;0.092;2023-02-08T16:07:54;3.00;3.00;3.00
76784;PMS7003;66893;44.316;0.092;2023-02-08T16:10:22;6.00;6.00;4.75
76784;PMS7003;66893;44.316;0.092;2023-02-08T16:12:52;5.50;5.50;4.25
76784;PMS7003;66893;44.316;0.092;2023-02-08T16:18:01;5.75;4.50;3.75
76784;PMS7003;66893;44.316;0.092;2023-02-08T16:20:31;3.00;3.00;3.00
76784;PMS7003;66893;44.316;0.092;2023-02-08T16:22:59;5.75;4.00;4.00
76784;PMS7003;66893;44.316;0.092;2023-02-08T16:28:16;5.00;5.00;4.00
76784;PMS7003;66893;44.316;0.092;2023-02-08T16:30:55;4.50;4.00;3.00
76784;PMS7003;66893;44.316;0.092;2023-02-08T16:33:24;4.50;4.50;4.00
76784;PMS7003;66893;44.316;0.092;2023-02-08T16:35:50;4.25;4.00;3.25
76784;PMS7003;66893;44.316;0.092;2023-02-08T16:38:18;5.50;5.00;4.00
76784;PMS7003;66893;44.316;0.092;2023-02-08T16:40:50;5.00;5.00;4.00